Time;durP1;ratioP1;P1;durP2;ratioP2;P2;SDS_P1;SDS_P2;PMS_P1;PMS_P2;Temp;Humidity;BMP_temperature;BMP_pressure;BME280_temperature;BME280_humidity;BME280_pressure;Samples;Min_cycle;Max_cycle;Signal;HPM_P1;HPM_P2
2023/04/16 00:00:27;;;;;;;18.50;7.40;;;;;;;;;;105752;1293;23022;-78
2023/04/16 00:03:14;;;;;;;13.50;5.40;;;;;;;;;;105673;1290;24387;-79
2023/04/16 00:09:33;;;;;;;10.90;4.80;;;;;;;;;;105740;1294;22611;-77
2023/04/16 00:12:19;;;;;;;11.50;4.40;;;;;;;;;;105744;1274;24227;-84
2023/04/16 00:18:10;;;;;;;9.70;4.50;;;;;;;;;;105893;1291;25435;-82
2023/04/16 00:21:11;;;;;;;9.60;4.60;;;;;;;;;;105866;1288;25590;-78
2023/04/16 00:24:12;;;;;;;;;;;;;;;;;;;;;
2023/04/16 00:30:06;;;;;;;10.70;4.50;;;;;;;;;;105880;1291;22654;-84
2023/04/16 00:32:55;;;;;;;11.40;4.50;;;;;;;;;;105711;1275;24215;-82
2023/04/16 00:35:23;;;;;;;11.30;4.50;;;;;;;;;;105739;1293;22540;-80
2023/04/16 00:38:10;;;;;;;10.60;4.50;;;;;;;;;;105759;1293;22787;-78
2023/04/16 00:40:47;;;;;;;;;;;;;;;;;;;;;
2023/04/16 00:44:08;;;;;;;;;;;;;;;;;;;;;
2023/04/16 00:47:37;;;;;;;10.70;4.40;;;;;;;;;;105573;1277;22523;-81
2023/04/16 00:50:05;;;;;;;9.80;4.30;;;;;;;;;;106850;1277;22540;-84
2023/04/16 00:53:02;;;;;;;11.20;4.30;;;;;;;;;;106843;1259;22521;-82
2023/04/16 00:55:34;;;;;;;10.90;4.50;;;;;;;;;;106996;1276;22531;-79
2023/04/16 00:58:21;;;;;;;9.40;4.00;;;;;;;;;;106869;1276;22657;-79
2023/04/16 01:01:40;;;;;;;9.40;4.60;;;;;;;;;;106016;1288;22601;-83
2023/04/16 01:04:09;;;;;;;10.80;4.40;;;;;;;;;;105963;1270;22536;-84
2023/04/16 01:07:19;;;;;;;10.40;4.30;;;;;;;;;;105953;1289;25291;-81
2023/04/16 01:10:16;;;;;;;9.50;4.10;;;;;;;;;;105945;1289;24242;-81
2023/04/16 01:13:08;;;;;;;9.90;4.20;;;;;;;;;;105692;1277;22543;-80
2023/04/16 01:15:42;;;;;;;9.40;3.70;;;;;;;;;;105697;1294;22581;-78
2023/04/16 01:18:18;;;;;;;9.50;3.90;;;;;;;;;;105711;1294;24274;-82
2023/04/16 01:21:06;;;;;;;8.50;4.20;;;;;;;;;;105688;1294;25960;-82
2023/04/16 01:24:07;;;;;;;;;;;;;;;;;;;;;
2023/04/16 01:33:36;;;;;;;11.50;5.30;;;;;;;;;;105226;1279;24294;-80
2023/04/16 01:51:03;;;;;;;10.10;4.10;;;;;;;;;;104859;1277;25230;-79
2023/04/16 01:53:54;;;;;;;9.10;3.90;;;;;;;;;;106802;1259;22614;-79
2023/04/16 01:56:21;;;;;;;8.90;4.50;;;;;;;;;;106696;1277;24227;-78
2023/04/16 02:29:47;;;;;;;13.60;6.10;;;;;;;;;;106391;1265;22550;-81
2023/04/16 02:33:00;;;;;;;14.30;6.80;;;;;;;;;;106440;1283;22527;-82
2023/04/16 02:35:51;;;;;;;14.40;7.20;;;;;;;;;;106369;1283;24211;-83
2023/04/16 02:38:20;;;;;;;14.10;7.40;;;;;;;;;;106336;1264;25318;-81
2023/04/16 02:41:18;;;;;;;15.90;7.40;;;;;;;;;;106456;1283;25282;-82
2023/04/16 02:47:25;;;;;;;13.00;6.60;;;;;;;;;;106031;1265;22543;-79
2023/04/16 02:49:55;;;;;;;13.80;7.00;;;;;;;;;;105983;1287;24049;-79
2023/04/16 02:52:44;;;;;;;14.50;7.30;;;;;;;;;;106008;1287;22558;-81
2023/04/16 02:56:11;;;;;;;15.70;6.80;;;;;;;;;;106016;1287;22539;-82
2023/04/16 02:58:33;;;;;;;15.30;7.30;;;;;;;;;;105735;1274;24244;-80
2023/04/16 03:01:03;;;;;;;13.10;6.80;;;;;;;;;;105746;1293;25572;-80
2023/04/16 03:04:23;;;;;;;13.60;7.00;;;;;;;;;;105956;1290;22512;-84
2023/04/16 03:07:22;;;;;;;12.30;6.20;;;;;;;;;;105711;1294;22545;-83
2023/04/16 03:10:18;;;;;;;12.30;6.00;;;;;;;;;;105701;1277;25503;-80
2023/04/16 03:13:09;;;;;;;11.00;5.30;;;;;;;;;;105707;1294;22548;-81
2023/04/16 03:15:56;;;;;;;12.30;6.60;;;;;;;;;;105654;1294;22590;-81
2023/04/16 03:18:34;;;;;;;14.00;7.70;;;;;;;;;;105752;1276;25362;-80
2023/04/16 03:22:02;;;;;;;15.90;8.80;;;;;;;;;;105770;1294;25394;-80
2023/04/16 03:24:48;;;;;;;;;;;;;;;;;;;;;
2023/04/16 03:31:32;;;;;;;13.20;7.40;;;;;;;;;;105755;1273;25215;-77
2023/04/16 03:36:54;;;;;;;14.30;7.10;;;;;;;;;;105884;1289;22566;-81
2023/04/16 03:39:38;;;;;;;13.10;7.30;;;;;;;;;;105925;1267;22547;-82
2023/04/16 03:42:12;;;;;;;14.00;7.30;;;;;;;;;;105906;1289;22639;-84
2023/04/16 03:44:52;;;;;;;;;;;;;;;;;;;;;
2023/04/16 03:47:35;;;;;;;13.50;7.10;;;;;;;;;;106409;1284;22552;-80
2023/04/16 03:50:03;;;;;;;13.40;7.20;;;;;;;;;;106429;1284;22638;-82
2023/04/16 03:52:53;;;;;;;13.30;7.00;;;;;;;;;;106146;1284;22675;-81
2023/04/16 04:02:09;;;;;;;14.70;8.10;;;;;;;;;;105617;1281;24224;-79
2023/04/16 04:05:16;;;;;;;15.40;8.00;;;;;;;;;;105750;1293;22738;-82
2023/04/16 04:07:52;;;;;;;13.40;8.00;;;;;;;;;;105779;1293;22671;-80
2023/04/16 04:10:44;;;;;;;14.30;7.70;;;;;;;;;;105733;1274;23159;-79
2023/04/16 04:13:31;;;;;;;14.30;6.90;;;;;;;;;;105752;1293;25452;-79
2023/04/16 04:16:30;;;;;;;15.10;7.90;;;;;;;;;;105735;1293;24259;-84
2023/04/16 04:18:59;;;;;;;15.50;7.90;;;;;;;;;;105499;1298;22675;-78
2023/04/16 04:21:32;;;;;;;14.20;7.00;;;;;;;;;;105225;1282;22689;-79
2023/04/16 04:24:07;;;;;;;14.00;6.50;;;;;;;;;;105496;1296;25628;-83
2023/04/16 04:33:54;;;;;;;16.20;7.30;;;;;;;;;;105271;1286;22659;-82
2023/04/16 04:36:59;;;;;;;13.20;7.50;;;;;;;;;;105531;1297;24315;-81
2023/04/16 04:39:36;;;;;;;15.10;7.80;;;;;;;;;;105715;1291;22539;-78
2023/04/16 04:42:23;;;;;;;14.10;7.30;;;;;;;;;;105879;1291;25322;-79
2023/04/16 04:44:51;;;;;;;14.70;8.00;;;;;;;;;;105794;1272;22547;-81
2023/04/16 04:47:40;;;;;;;15.90;8.00;;;;;;;;;;105748;1291;24368;-80
2023/04/16 04:50:10;;;;;;;13.70;7.50;;;;;;;;;;106114;1286;24294;-80
2023/04/16 04:52:46;;;;;;;15.50;8.10;;;;;;;;;;106345;1268;24263;-84
2023/04/16 04:55:36;;;;;;;14.40;8.00;;;;;;;;;;106033;1286;22677;-82
2023/04/16 04:58:37;;;;;;;;;;;;;;;;;;;;;
2023/04/16 05:01:22;;;;;;;13.80;7.40;;;;;;;;;;106367;1286;23011;-84
2023/04/16 05:07:08;;;;;;;13.20;7.00;;;;;;;;;;106175;1284;24190;-81
2023/04/16 05:09:46;;;;;;;13.00;7.10;;;;;;;;;;106402;1284;22644;-79
2023/04/16 05:12:39;;;;;;;12.60;6.90;;;;;;;;;;106391;1284;25339;-79
2023/04/16 05:15:06;;;;;;;12.50;7.10;;;;;;;;;;106379;1265;22613;-84
2023/04/16 05:17:36;;;;;;;14.40;7.40;;;;;;;;;;106440;1284;22542;-78
2023/04/16 05:20:03;;;;;;;13.50;7.30;;;;;;;;;;106389;1284;22528;-80
2023/04/16 05:22:59;;;;;;;15.00;8.00;;;;;;;;;;106355;1267;22542;-81
2023/04/16 05:25:29;;;;;;;14.60;7.90;;;;;;;;;;106269;1266;22541;-82
2023/04/16 05:28:11;;;;;;;;;;;;;;;;;;;;;
2023/04/16 05:31:09;;;;;;;14.90;8.00;;;;;;;;;;106038;1285;24256;-78
2023/04/16 05:33:55;;;;;;;13.80;7.30;;;;;;;;;;106226;1262;25371;-77
2023/04/16 05:36:21;;;;;;;17.60;9.00;;;;;;;;;;106518;1284;25274;-77
2023/04/16 05:39:29;;;;;;;15.30;8.20;;;;;;;;;;106860;1278;22547;-77
2023/04/16 05:42:18;;;;;;;33.90;12.60;;;;;;;;;;106858;1278;22522;-78
2023/04/16 05:44:45;;;;;;;41.90;15.00;;;;;;;;;;106879;1259;22538;-78
2023/04/16 05:47:14;;;;;;;46.10;16.90;;;;;;;;;;106902;1257;22730;-77
2023/04/16 05:49:54;;;;;;;116.80;35.50;;;;;;;;;;106832;1278;26485;-82
2023/04/16 05:52:37;;;;;;;53.20;21.40;;;;;;;;;;106785;1278;25291;-81
2023/04/16 05:55:10;;;;;;;50.80;20.90;;;;;;;;;;106826;1262;22762;-83
2023/04/16 05:57:40;;;;;;;39.10;17.40;;;;;;;;;;106787;1278;22538;-82
2023/04/16 06:00:09;;;;;;;25.90;12.40;;;;;;;;;;106829;1278;25278;-82
2023/04/16 06:03:08;;;;;;;15.90;8.60;;;;;;;;;;106791;1278;22641;-80
2023/04/16 06:05:38;;;;;;;20.40;9.10;;;;;;;;;;106796;1278;22520;-84
2023/04/16 06:08:07;;;;;;;21.60;10.00;;;;;;;;;;106791;1278;24217;-82
2023/04/16 06:10:48;;;;;;;26.60;10.70;;;;;;;;;;106777;1278;24364;-84
2023/04/16 06:13:15;;;;;;;17.10;7.80;;;;;;;;;;106834;1278;22524;-82
2023/04/16 06:15:54;;;;;;;;;;;;;;;;;;;;;
2023/04/16 06:18:24;;;;;;;13.20;6.70;;;;;;;;;;106822;1278;22774;-82
2023/04/16 06:21:22;;;;;;;;;;;;;;;;;;;;;
2023/04/16 06:23:49;;;;;;;11.90;6.30;;;;;;;;;;106823;1277;22546;-81
2023/04/16 06:26:19;;;;;;;11.40;6.60;;;;;;;;;;106854;1259;23337;-82
2023/04/16 06:28:49;;;;;;;12.60;6.70;;;;;;;;;;106856;1277;23762;-84
2023/04/16 06:31:26;;;;;;;15.30;7.10;;;;;;;;;;106833;1275;22526;-82
2023/04/16 06:34:04;;;;;;;12.90;7.00;;;;;;;;;;106861;1277;22520;-84
2023/04/16 06:39:51;;;;;;;10.90;6.60;;;;;;;;;;106772;1277;22999;-84
2023/04/16 06:42:40;;;;;;;11.80;6.70;;;;;;;;;;106846;1277;22554;-78
2023/04/16 06:45:12;;;;;;;11.10;6.00;;;;;;;;;;106838;1253;25384;-81
2023/04/16 06:47:42;;;;;;;15.90;6.00;;;;;;;;;;106816;1277;22758;-82
2023/04/16 06:50:21;;;;;;;11.70;6.10;;;;;;;;;;106856;1277;24239;-82
2023/04/16 06:52:48;;;;;;;11.60;5.80;;;;;;;;;;106876;1277;22578;-79
2023/04/16 06:55:17;;;;;;;12.40;6.00;;;;;;;;;;106813;1256;22533;-81
2023/04/16 06:57:44;;;;;;;11.50;6.10;;;;;;;;;;106840;1277;24195;-78
2023/04/16 07:00:11;;;;;;;10.20;5.20;;;;;;;;;;106844;1277;22524;-84
2023/04/16 07:02:59;;;;;;;13.10;6.30;;;;;;;;;;106831;1277;25406;-81
2023/04/16 07:05:29;;;;;;;13.20;6.60;;;;;;;;;;106828;1253;24191;-84
2023/04/16 07:07:57;;;;;;;12.60;6.90;;;;;;;;;;106844;1277;24196;-81
2023/04/16 07:10:27;;;;;;;12.20;6.80;;;;;;;;;;106881;1277;22483;-78
2023/04/16 07:13:14;;;;;;;13.80;6.50;;;;;;;;;;106817;1277;22523;-78
2023/04/16 07:15:44;;;;;;;11.60;6.00;;;;;;;;;;106835;1277;25217;-78
2023/04/16 07:18:31;;;;;;;11.00;5.80;;;;;;;;;;106883;1277;22541;-82
2023/04/16 07:21:11;;;;;;;;;;;;;;;;;;;;;
2023/04/16 07:23:38;;;;;;;12.70;6.00;;;;;;;;;;106903;1277;23317;-82
2023/04/16 07:26:05;;;;;;;11.60;5.70;;;;;;;;;;106830;1267;22525;-76
2023/04/16 07:28:36;;;;;;;11.00;6.30;;;;;;;;;;106864;1277;24234;-81
2023/04/16 07:31:02;;;;;;;12.00;5.70;;;;;;;;;;106858;1277;23124;-81
2023/04/16 07:33:29;;;;;;;10.30;5.70;;;;;;;;;;106895;1277;25463;-77
2023/04/16 07:35:56;;;;;;;10.40;5.50;;;;;;;;;;106850;1257;22620;-81
2023/04/16 07:38:33;;;;;;;11.50;6.30;;;;;;;;;;106827;1277;22581;-76
2023/04/16 07:41:00;;;;;;;10.40;6.10;;;;;;;;;;106808;1277;22559;-79
2023/04/16 07:43:30;;;;;;;10.20;5.90;;;;;;;;;;106848;1277;22526;-81
2023/04/16 07:46:20;;;;;;;10.90;6.50;;;;;;;;;;106827;1277;22656;-76
2023/04/16 07:48:47;;;;;;;10.60;6.20;;;;;;;;;;106812;1260;22523;-78
2023/04/16 07:51:38;;;;;;;12.60;5.90;;;;;;;;;;106871;1277;22550;-78
2023/04/16 08:01:34;;;;;;;12.00;7.50;;;;;;;;;;104508;1286;547927;-79
2023/04/16 08:04:40;;;;;;;13.60;7.30;;;;;;;;;;106692;1282;24381;-79
2023/04/16 08:07:09;;;;;;;11.90;6.60;;;;;;;;;;106624;1282;22539;-84
2023/04/16 08:09:46;;;;;;;13.60;8.20;;;;;;;;;;106485;1282;25379;-81
2023/04/16 08:12:32;;;;;;;13.10;7.40;;;;;;;;;;106383;1265;22536;-78
2023/04/16 08:14:58;;;;;;;13.10;7.80;;;;;;;;;;104509;1281;2797280;-84
2023/04/16 08:17:27;;;;;;;13.40;8.10;;;;;;;;;;106679;1281;24218;-83
2023/04/16 08:19:53;;;;;;;12.60;7.30;;;;;;;;;;106488;1280;22609;-79
2023/04/16 08:22:19;;;;;;;12.80;7.60;;;;;;;;;;106551;1263;22533;-77
2023/04/16 08:24:49;;;;;;;13.40;7.00;;;;;;;;;;106493;1279;25561;-81
2023/04/16 08:27:15;;;;;;;12.80;7.60;;;;;;;;;;106583;1279;22529;-77
2023/04/16 08:29:45;;;;;;;14.50;8.60;;;;;;;;;;106772;1280;22546;-77
2023/04/16 08:32:22;;;;;;;14.10;8.40;;;;;;;;;;106349;1265;24184;-77
2023/04/16 08:34:48;;;;;;;13.20;8.60;;;;;;;;;;106312;1283;22675;-78
2023/04/16 08:37:24;;;;;;;14.80;8.70;;;;;;;;;;106416;1283;22553;-80
2023/04/16 08:39:50;;;;;;;11.20;7.30;;;;;;;;;;106830;1278;22530;-78
2023/04/16 08:42:21;;;;;;;12.50;7.10;;;;;;;;;;106868;1277;24310;-79
2023/04/16 08:44:52;;;;;;;10.80;6.40;;;;;;;;;;106881;1277;22526;-77
2023/04/16 08:47:20;;;;;;;11.50;6.70;;;;;;;;;;106882;1278;26607;-77
2023/04/16 08:49:46;;;;;;;13.50;6.80;;;;;;;;;;106845;1277;22534;-82
2023/04/16 08:52:19;;;;;;;10.20;6.40;;;;;;;;;;106787;1257;25237;-79
2023/04/16 08:55:01;;;;;;;11.30;7.00;;;;;;;;;;106755;1270;22550;-79
2023/04/16 08:57:38;;;;;;;12.80;7.20;;;;;;;;;;106499;1278;25419;-81
2023/04/16 09:00:06;;;;;;;10.90;6.30;;;;;;;;;;106418;1278;25233;-81
2023/04/16 09:02:35;;;;;;;11.30;6.50;;;;;;;;;;106875;1259;22661;-77
2023/04/16 09:05:09;;;;;;;11.70;6.80;;;;;;;;;;106517;1277;22531;-80
2023/04/16 09:07:36;;;;;;;12.10;7.20;;;;;;;;;;106696;1277;26557;-81
2023/04/16 09:10:04;;;;;;;10.30;5.30;;;;;;;;;;106802;1277;22540;-81
2023/04/16 09:12:52;;;;;;;14.70;8.80;;;;;;;;;;106723;1262;24194;-79
2023/04/16 09:15:19;;;;;;;13.60;8.00;;;;;;;;;;106348;1284;22550;-82
2023/04/16 09:17:48;;;;;;;11.90;7.90;;;;;;;;;;106372;1284;22761;-84
2023/04/16 09:20:38;;;;;;;13.00;7.60;;;;;;;;;;106346;1273;22136;-81
2023/04/16 09:23:04;;;;;;;12.90;6.90;;;;;;;;;;106376;1265;22786;-82
2023/04/16 09:25:41;;;;;;;11.40;6.60;;;;;;;;;;106474;1282;22833;-79
2023/04/16 09:28:09;;;;;;;12.50;6.70;;;;;;;;;;106361;1276;22683;-82
2023/04/16 09:30:37;;;;;;;12.80;7.10;;;;;;;;;;106446;1278;24436;-79
2023/04/16 09:33:16;;;;;;;12.30;7.20;;;;;;;;;;106202;1276;22533;-80
2023/04/16 09:35:50;;;;;;;10.60;6.00;;;;;;;;;;106595;1274;23019;-77
2023/04/16 09:38:17;;;;;;;11.20;5.70;;;;;;;;;;106498;1278;25479;-78
2023/04/16 09:40:46;;;;;;;10.50;5.20;;;;;;;;;;106507;1275;25281;-81
2023/04/16 09:43:15;;;;;;;8.30;4.90;;;;;;;;;;106606;1263;25321;-81
2023/04/16 09:45:51;;;;;;;9.60;5.40;;;;;;;;;;106806;1276;22543;-78
2023/04/16 09:48:37;;;;;;;11.30;7.00;;;;;;;;;;106975;1272;25521;-77
2023/04/16 09:51:05;;;;;;;13.10;7.60;;;;;;;;;;106823;1276;22524;-81
2023/04/16 09:53:33;;;;;;;12.70;7.40;;;;;;;;;;106757;1275;25331;-78
2023/04/16 09:56:05;;;;;;;14.30;8.30;;;;;;;;;;106657;1269;24212;-84
2023/04/16 09:58:37;;;;;;;12.10;7.70;;;;;;;;;;107156;1275;24259;-81
2023/04/16 10:01:07;;;;;;;12.50;7.10;;;;;;;;;;106901;1275;22527;-84
2023/04/16 10:03:48;;;;;;;10.00;6.60;;;;;;;;;;106970;1254;22542;-80
2023/04/16 10:06:15;;;;;;;15.10;7.60;;;;;;;;;;106877;1276;22526;-81
2023/04/16 10:08:48;;;;;;;10.20;6.00;;;;;;;;;;106894;1275;25474;-80
2023/04/16 10:11:14;;;;;;;11.30;6.50;;;;;;;;;;106851;1275;24342;-82
2023/04/16 10:13:44;;;;;;;10.50;5.80;;;;;;;;;;106837;1258;22573;-78
2023/04/16 10:16:10;;;;;;;10.10;5.80;;;;;;;;;;106901;1275;24036;-77
2023/04/16 10:18:37;;;;;;;10.00;6.10;;;;;;;;;;107091;1275;22616;-77
2023/04/16 10:21:03;;;;;;;11.50;6.80;;;;;;;;;;106973;1275;25529;-78
2023/04/16 10:23:29;;;;;;;10.40;6.10;;;;;;;;;;106818;1264;24183;-77
2023/04/16 10:25:57;;;;;;;8.90;5.00;;;;;;;;;;106891;1275;22530;-83
2023/04/16 10:28:33;;;;;;;;;;;;;;;;;;;;;
2023/04/16 10:31:16;;;;;;;11.80;6.40;;;;;;;;;;106457;1282;25426;-81
2023/04/16 10:33:43;;;;;;;9.80;5.60;;;;;;;;;;106487;1262;22532;-78
2023/04/16 10:36:13;;;;;;;11.20;6.40;;;;;;;;;;106624;1281;22500;-80
2023/04/16 10:38:40;;;;;;;9.60;5.10;;;;;;;;;;106412;1273;22556;-77
2023/04/16 10:41:07;;;;;;;11.30;6.00;;;;;;;;;;106577;1278;25410;-81
2023/04/16 10:43:44;;;;;;;9.00;5.10;;;;;;;;;;106474;1280;22539;-77
2023/04/16 10:46:20;;;;;;;9.10;5.30;;;;;;;;;;106518;1279;24320;-81
2023/04/16 10:48:47;;;;;;;8.60;5.10;;;;;;;;;;106710;1280;22754;-83
2023/04/16 10:51:26;;;;;;;9.20;4.70;;;;;;;;;;106492;1277;24505;-79
2023/04/16 10:54:03;;;;;;;9.60;5.30;;;;;;;;;;106617;1264;22535;-77
2023/04/16 10:56:32;;;;;;;9.50;5.00;;;;;;;;;;106573;1274;25307;-76
2023/04/16 10:58:59;;;;;;;10.30;5.70;;;;;;;;;;106671;1259;22547;-78
2023/04/16 11:01:28;;;;;;;10.80;5.40;;;;;;;;;;106654;1269;22491;-78
2023/04/16 11:04:15;;;;;;;10.20;5.60;;;;;;;;;;107184;1257;22602;-80
2023/04/16 11:06:59;;;;;;;9.40;5.80;;;;;;;;;;107194;1270;24254;-76
2023/04/16 11:09:46;;;;;;;9.70;5.70;;;;;;;;;;107178;1270;22533;-80
2023/04/16 11:12:17;;;;;;;10.80;6.60;;;;;;;;;;107241;1275;22531;-75
2023/04/16 11:14:48;;;;;;;10.70;6.30;;;;;;;;;;107378;1266;22519;-81
2023/04/16 11:17:14;;;;;;;10.50;6.20;;;;;;;;;;106889;1275;23911;-83
2023/04/16 11:19:41;;;;;;;10.00;5.80;;;;;;;;;;106909;1275;22666;-76
2023/04/16 11:22:07;;;;;;;19.50;11.50;;;;;;;;;;106883;1276;22550;-83
2023/04/16 11:24:34;;;;;;;11.60;6.50;;;;;;;;;;107158;1256;22528;-78
2023/04/16 11:27:01;;;;;;;11.40;6.50;;;;;;;;;;106962;1273;22550;-83
2023/04/16 11:29:28;;;;;;;10.60;5.30;;;;;;;;;;107222;1267;22524;-77
2023/04/16 11:31:54;;;;;;;9.70;5.10;;;;;;;;;;107075;1273;24399;-76
2023/04/16 11:34:23;;;;;;;14.80;7.90;;;;;;;;;;106992;1273;22530;-81
2023/04/16 11:36:50;;;;;;;14.90;7.80;;;;;;;;;;106955;1275;25405;-76
2023/04/16 11:42:21;;;;;;;9.30;5.10;;;;;;;;;;107667;1267;25268;-77
2023/04/16 11:44:59;;;;;;;10.40;5.70;;;;;;;;;;107212;1257;24148;-76
2023/04/16 11:47:28;;;;;;;15.10;7.90;;;;;;;;;;107097;1275;24200;-80
2023/04/16 11:49:54;;;;;;;12.00;6.40;;;;;;;;;;106903;1275;22720;-80
2023/04/16 11:52:28;;;;;;;10.40;5.70;;;;;;;;;;107001;1275;22553;-76
2023/04/16 11:54:57;;;;;;;9.80;5.60;;;;;;;;;;107348;1257;22545;-76
2023/04/16 11:57:30;;;;;;;12.20;6.10;;;;;;;;;;107008;1275;25344;-77
2023/04/16 12:00:19;;;;;;;11.20;6.00;;;;;;;;;;107020;1275;24245;-81
2023/04/16 12:02:47;;;;;;;9.80;4.90;;;;;;;;;;106989;1270;25520;-79
2023/04/16 12:05:46;;;;;;;10.00;5.90;;;;;;;;;;106880;1263;25287;-76
2023/04/16 12:08:37;;;;;;;;;;;;;;;;;;;;;
2023/04/16 12:11:23;;;;;;;10.80;5.90;;;;;;;;;;107116;1274;22537;-81
2023/04/16 12:14:10;;;;;;;10.60;5.80;;;;;;;;;;107134;1275;23894;-78
2023/04/16 12:16:57;;;;;;;11.90;5.70;;;;;;;;;;106867;1264;25280;-81
2023/04/16 12:19:23;;;;;;;10.40;5.70;;;;;;;;;;107045;1274;22935;-78
2023/04/16 12:21:49;;;;;;;10.20;5.90;;;;;;;;;;107168;1274;22527;-78
2023/04/16 12:24:36;;;;;;;10.70;6.50;;;;;;;;;;107191;1274;25347;-80
2023/04/16 12:27:05;;;;;;;9.40;5.40;;;;;;;;;;106878;1273;22642;-76
2023/04/16 12:29:32;;;;;;;9.90;5.10;;;;;;;;;;106930;1263;22644;-77
2023/04/16 12:31:58;;;;;;;10.40;5.00;;;;;;;;;;107530;1274;24212;-78
2023/04/16 12:34:25;;;;;;;9.10;4.70;;;;;;;;;;107070;1275;22529;-76
2023/04/16 12:37:03;;;;;;;12.60;6.20;;;;;;;;;;107208;1257;24647;-76
2023/04/16 12:39:29;;;;;;;10.40;5.40;;;;;;;;;;107036;1275;22602;-78
2023/04/16 12:42:08;;;;;;;10.70;5.60;;;;;;;;;;106968;1269;22539;-80
2023/04/16 12:44:35;;;;;;;13.30;7.00;;;;;;;;;;107171;1273;25351;-77
2023/04/16 12:47:01;;;;;;;14.10;7.90;;;;;;;;;;107037;1259;22538;-76
2023/04/16 12:49:30;;;;;;;14.70;8.90;;;;;;;;;;106991;1273;22530;-77
2023/04/16 12:51:56;;;;;;;10.70;5.60;;;;;;;;;;106753;1270;22532;-76
2023/04/16 12:54:29;;;;;;;9.60;4.80;;;;;;;;;;107009;1273;22542;-77
2023/04/16 12:56:57;;;;;;;8.50;4.30;;;;;;;;;;106977;1257;24196;-83
2023/04/16 12:59:23;;;;;;;8.40;4.10;;;;;;;;;;106915;1275;26556;-76
2023/04/16 13:01:54;;;;;;;8.40;3.90;;;;;;;;;;106942;1275;22546;-76
2023/04/16 13:04:20;;;;;;;8.50;3.80;;;;;;;;;;106986;1273;25350;-76
2023/04/16 13:06:52;;;;;;;10.90;5.90;;;;;;;;;;106729;1260;22531;-77
2023/04/16 13:09:30;;;;;;;9.60;4.90;;;;;;;;;;106852;1269;22486;-76
2023/04/16 13:12:18;;;;;;;75.90;31.70;;;;;;;;;;106790;1274;24193;-76
2023/04/16 13:14:44;;;;;;;12.70;6.20;;;;;;;;;;106874;1275;23901;-79
2023/04/16 13:17:11;;;;;;;8.50;3.90;;;;;;;;;;106878;1270;25383;-78
2023/04/16 13:19:58;;;;;;;8.00;3.80;;;;;;;;;;106786;1275;22527;-79
2023/04/16 13:22:27;;;;;;;7.60;3.50;;;;;;;;;;106601;1275;22539;-76
2023/04/16 13:28:47;;;;;;;9.60;3.70;;;;;;;;;;107685;1260;24231;-78
2023/04/16 13:31:14;;;;;;;8.10;3.20;;;;;;;;;;106375;1276;24357;-77
2023/04/16 13:33:44;;;;;;;9.30;5.20;;;;;;;;;;106465;1279;25468;-76
2023/04/16 13:36:10;;;;;;;15.00;6.60;;;;;;;;;;106437;1280;25435;-76
2023/04/16 13:38:46;;;;;;;29.30;14.30;;;;;;;;;;106469;1276;22534;-82
2023/04/16 13:41:12;;;;;;;25.60;14.70;;;;;;;;;;106504;1276;22682;-76
2023/04/16 13:44:00;;;;;;;17.50;9.50;;;;;;;;;;106469;1279;22593;-78
2023/04/16 13:46:30;;;;;;;20.20;9.70;;;;;;;;;;106494;1282;22546;-80
2023/04/16 13:48:59;;;;;;;17.90;8.40;;;;;;;;;;106382;1268;25364;-80
2023/04/16 13:51:35;;;;;;;8.60;4.00;;;;;;;;;;106332;1276;22553;-77
2023/04/16 13:54:02;;;;;;;7.40;3.10;;;;;;;;;;106456;1276;22558;-86
2023/04/16 13:56:29;;;;;;;9.00;3.80;;;;;;;;;;106528;1276;25331;-77
2023/04/16 13:58:55;;;;;;;7.30;3.00;;;;;;;;;;106426;1281;25105;-77
2023/04/16 14:01:24;;;;;;;8.10;4.00;;;;;;;;;;106476;1279;24286;-80
2023/04/16 14:03:51;;;;;;;12.00;6.10;;;;;;;;;;106499;1276;24352;-78
2023/04/16 14:06:20;;;;;;;8.20;3.70;;;;;;;;;;106783;1272;24288;-77
2023/04/16 14:09:03;;;;;;;9.80;4.90;;;;;;;;;;106715;1269;22532;-79
2023/04/16 14:11:30;;;;;;;14.60;8.60;;;;;;;;;;106997;1274;22526;-76
2023/04/16 14:13:59;;;;;;;10.70;5.70;;;;;;;;;;106817;1277;26505;-82
2023/04/16 14:16:28;;;;;;;8.70;4.30;;;;;;;;;;106860;1277;24359;-81
2023/04/16 14:18:54;;;;;;;8.50;3.30;;;;;;;;;;106913;1260;22480;-81
2023/04/16 14:21:40;;;;;;;10.60;5.20;;;;;;;;;;106859;1275;24222;-82
2023/04/16 14:24:08;;;;;;;9.60;4.40;;;;;;;;;;106850;1275;22542;-78
2023/04/16 14:26:54;;;;;;;8.70;3.90;;;;;;;;;;106951;1275;22493;-79
2023/04/16 14:29:40;;;;;;;10.90;4.70;;;;;;;;;;106906;1260;22648;-76
2023/04/16 14:32:09;;;;;;;9.00;3.90;;;;;;;;;;107125;1275;24231;-77
2023/04/16 14:34:39;;;;;;;8.90;3.60;;;;;;;;;;106967;1275;23870;-80
2023/04/16 14:37:05;;;;;;;8.20;3.60;;;;;;;;;;107054;1274;25349;-78
2023/04/16 14:39:31;;;;;;;8.70;3.70;;;;;;;;;;107158;1254;22920;-75
2023/04/16 14:42:18;;;;;;;7.70;3.00;;;;;;;;;;107184;1272;25430;-81
2023/04/16 14:45:08;;;;;;;9.70;3.40;;;;;;;;;;107283;1272;22534;-80
2023/04/16 14:47:33;;;;;;;13.20;6.60;;;;;;;;;;107338;1272;23282;-78
2023/04/16 14:50:04;;;;;;;20.50;8.60;;;;;;;;;;107097;1272;23973;-79
2023/04/16 14:52:32;;;;;;;11.70;4.60;;;;;;;;;;107135;1265;23062;-75
2023/04/16 14:54:59;;;;;;;9.50;3.60;;;;;;;;;;107189;1272;24233;-81
2023/04/16 14:57:45;;;;;;;9.40;3.60;;;;;;;;;;106901;1275;25326;-79
2023/04/16 15:00:16;;;;;;;7.80;3.30;;;;;;;;;;107134;1254;22644;-78
2023/04/16 15:02:46;;;;;;;7.10;3.40;;;;;;;;;;107008;1274;26592;-78
2023/04/16 15:05:26;;;;;;;7.90;3.70;;;;;;;;;;107127;1274;22588;-77
2023/04/16 15:08:04;;;;;;;8.20;3.30;;;;;;;;;;107169;1274;24219;-77
2023/04/16 15:10:50;;;;;;;7.20;2.90;;;;;;;;;;107177;1253;24360;-75
2023/04/16 15:13:17;;;;;;;8.10;2.90;;;;;;;;;;107223;1271;25445;-76
2023/04/16 15:15:45;;;;;;;6.80;2.60;;;;;;;;;;107187;1272;25463;-78
2023/04/16 15:18:31;;;;;;;6.20;2.60;;;;;;;;;;107341;1272;22479;-76
2023/04/16 15:20:58;;;;;;;6.80;2.40;;;;;;;;;;107378;1263;24260;-77
2023/04/16 15:23:27;;;;;;;5.70;2.10;;;;;;;;;;107158;1272;25223;-79
2023/04/16 15:25:59;;;;;;;5.30;1.90;;;;;;;;;;107101;1267;25517;-78
2023/04/16 15:28:35;;;;;;;6.40;2.40;;;;;;;;;;107157;1274;22791;-79
2023/04/16 15:31:02;;;;;;;9.80;2.90;;;;;;;;;;107141;1254;22547;-80
2023/04/16 15:33:30;;;;;;;5.30;1.80;;;;;;;;;;107168;1273;24204;-83
2023/04/16 15:35:59;;;;;;;5.00;1.80;;;;;;;;;;107055;1273;23902;-76
2023/04/16 15:38:29;;;;;;;4.70;1.60;;;;;;;;;;107138;1273;22543;-81
2023/04/16 15:40:59;;;;;;;5.70;1.90;;;;;;;;;;107153;1269;23411;-76
2023/04/16 15:43:34;;;;;;;5.50;1.60;;;;;;;;;;107305;1272;22758;-82
2023/04/16 15:46:06;;;;;;;5.00;1.70;;;;;;;;;;107269;1272;23412;-83
2023/04/16 15:48:52;;;;;;;4.50;1.80;;;;;;;;;;107089;1272;25309;-77
2023/04/16 15:51:19;;;;;;;5.30;2.00;;;;;;;;;;107368;1254;23047;-77
2023/04/16 15:54:08;;;;;;;5.50;2.00;;;;;;;;;;107144;1272;22520;-77
2023/04/16 15:56:43;;;;;;;7.00;2.40;;;;;;;;;;107392;1272;22488;-79
2023/04/16 15:59:22;;;;;;;6.10;2.50;;;;;;;;;;107112;1267;22620;-76
2023/04/16 16:01:52;;;;;;;6.00;2.40;;;;;;;;;;107096;1258;22524;-77
2023/04/16 16:04:20;;;;;;;5.70;2.10;;;;;;;;;;107053;1274;25402;-77
2023/04/16 16:07:10;;;;;;;13.80;6.40;;;;;;;;;;107155;1274;22646;-82
2023/04/16 16:09:51;;;;;;;9.30;4.10;;;;;;;;;;107311;1273;21797;-79
2023/04/16 16:12:27;;;;;;;6.70;2.40;;;;;;;;;;107234;1266;23298;-77
2023/04/16 16:15:06;;;;;;;6.30;2.50;;;;;;;;;;107146;1272;25343;-80
2023/04/16 16:17:46;;;;;;;5.80;2.30;;;;;;;;;;107435;1272;22536;-81
2023/04/16 16:20:13;;;;;;;7.10;2.50;;;;;;;;;;107432;1270;22527;-76
2023/04/16 16:22:41;;;;;;;6.70;2.70;;;;;;;;;;107167;1259;25332;-78
2023/04/16 16:25:09;;;;;;;6.00;2.00;;;;;;;;;;107413;1272;22536;-75
2023/04/16 16:27:39;;;;;;;5.10;2.00;;;;;;;;;;107351;1272;25223;-78
2023/04/16 16:30:09;;;;;;;9.70;3.80;;;;;;;;;;107541;1272;22523;-78
2023/04/16 16:32:43;;;;;;;5.70;2.30;;;;;;;;;;107692;1257;24205;-80
2023/04/16 16:35:09;;;;;;;8.40;3.90;;;;;;;;;;107412;1272;22501;-84
2023/04/16 16:37:58;;;;;;;24.00;10.90;;;;;;;;;;107201;1272;24383;-82
2023/04/16 16:40:26;;;;;;;13.10;7.80;;;;;;;;;;107205;1272;22538;-81
2023/04/16 16:42:52;;;;;;;9.40;5.90;;;;;;;;;;107369;1254;24400;-77
2023/04/16 16:45:39;;;;;;;6.60;3.10;;;;;;;;;;107298;1271;24183;-76
2023/04/16 16:48:14;;;;;;;6.70;2.80;;;;;;;;;;107270;1269;22527;-81
2023/04/16 16:50:40;;;;;;;7.10;3.00;;;;;;;;;;107147;1271;25422;-76
2023/04/16 16:53:06;;;;;;;6.00;2.20;;;;;;;;;;107399;1253;22523;-84
2023/04/16 16:55:35;;;;;;;5.80;2.60;;;;;;;;;;107352;1271;26641;-79
2023/04/16 16:58:11;;;;;;;6.70;2.70;;;;;;;;;;107349;1270;25223;-77
2023/04/16 17:00:37;;;;;;;6.70;3.00;;;;;;;;;;107445;1267;25273;-75
2023/04/16 17:03:13;;;;;;;6.00;2.60;;;;;;;;;;107067;1264;22527;-81
2023/04/16 17:05:42;;;;;;;6.50;2.40;;;;;;;;;;107285;1270;22640;-81
2023/04/16 17:08:09;;;;;;;5.60;2.10;;;;;;;;;;107134;1270;24187;-81
2023/04/16 17:10:45;;;;;;;6.10;2.50;;;;;;;;;;107277;1264;22524;-75
2023/04/16 17:13:12;;;;;;;5.10;2.30;;;;;;;;;;107180;1264;24035;-77